Terminal Aerodrome Forecast
Issued by NWS Topeka, KS

Home | Current Version | Previous Version | Graphics & Text | Print | Product List | Glossary On
Versions: 1 2 3 4 5 6 7 8 9 10 11 12 13 14 15 16 17 18 19 20 21 22 23 24
717
FTUS43 KTOP 162110 AAA
TAFTOP
TAF AMD
KTOP 162110Z 1621/1718 26005KT P6SM -SHRA BKN015
     FM170000 23005KT P6SM VCSH OVC008
     FM170300 30008KT 5SM BR OVC005=

USA.gov is the U.S. government's official web portal to all federal, state and local government web resources and services.